createdAt,value
2023-04-18T00:01:26.886Z,8.35
2023-04-18T00:03:54.803Z,8.39
2023-04-18T00:06:24.174Z,8.28
2023-04-18T00:08:51.879Z,8.25
2023-04-18T00:11:19.673Z,8.26
2023-04-18T00:13:48.267Z,8.22
2023-04-18T00:16:16.392Z,8.22
2023-04-18T00:18:44.243Z,8.01
2023-04-18T00:21:13.487Z,8.16
2023-04-18T00:23:43.199Z,8.03
2023-04-18T00:26:10.975Z,7.98
2023-04-18T00:28:38.964Z,8.02
2023-04-18T00:31:06.806Z,7.95
2023-04-18T00:33:35.240Z,7.88
2023-04-18T00:36:03.382Z,7.63
2023-04-18T00:38:31.243Z,7.59
2023-04-18T00:41:00.378Z,7.77
2023-04-18T00:43:28.450Z,7.72
2023-04-18T00:45:57.251Z,7.77
2023-04-18T00:48:25.343Z,7.78
2023-04-18T00:50:54.163Z,7.75
2023-04-18T00:53:21.842Z,7.62
2023-04-18T00:55:49.846Z,7.60
2023-04-18T00:58:19.057Z,7.59
2023-04-18T01:00:47.649Z,7.58
2023-04-18T01:03:15.572Z,7.46
2023-04-18T01:05:43.453Z,7.50
2023-04-18T01:08:12.108Z,7.27
2023-04-18T01:10:40.085Z,7.29
2023-04-18T01:13:12.441Z,7.29
2023-04-18T01:15:43.494Z,7.29
2023-04-18T01:18:11.816Z,7.26
2023-04-18T01:20:42.549Z,7.07
2023-04-18T01:23:11.559Z,7.17
2023-04-18T01:25:41.005Z,7.17
2023-04-18T01:28:08.928Z,7.18
2023-04-18T01:30:37.059Z,7.15
2023-04-18T01:33:06.379Z,7.15
2023-04-18T01:35:34.648Z,7.11
2023-04-18T01:38:02.945Z,7.09
2023-04-18T01:40:31.348Z,7.11
2023-04-18T01:43:00.664Z,7.07
2023-04-18T01:45:29.090Z,7.03
2023-04-18T01:47:56.886Z,6.92
2023-04-18T01:50:24.722Z,6.75
2023-04-18T01:52:52.453Z,6.96
2023-04-18T01:55:20.397Z,6.89
2023-04-18T01:57:48.167Z,6.91
2023-04-18T02:00:18.122Z,6.63
2023-04-18T02:02:46.036Z,6.55
2023-04-18T02:05:13.926Z,6.80
2023-04-18T02:07:42.755Z,6.86
2023-04-18T02:10:11.365Z,6.82
2023-04-18T02:12:39.558Z,6.88
2023-04-18T02:15:08.454Z,6.79
2023-04-18T02:17:37.942Z,6.84
2023-04-18T02:20:08.320Z,6.76
2023-04-18T02:22:37.616Z,6.66
2023-04-18T02:25:05.765Z,6.68
2023-04-18T02:27:33.909Z,6.60
2023-04-18T02:30:01.760Z,6.61
2023-04-18T02:32:29.597Z,6.63
2023-04-18T02:34:58.757Z,6.64
2023-04-18T02:37:26.747Z,6.62
2023-04-18T02:39:54.701Z,6.67
2023-04-18T02:42:22.488Z,6.65
2023-04-18T02:44:50.257Z,6.63
2023-04-18T02:47:17.990Z,6.65
2023-04-18T02:49:46.089Z,6.41
2023-04-18T02:52:15.445Z,6.64
2023-04-18T02:54:43.172Z,6.64
2023-04-18T02:57:10.888Z,6.66
2023-04-18T02:59:38.843Z,6.47
2023-04-18T03:02:06.734Z,6.69
2023-04-18T03:04:34.466Z,6.67
2023-04-18T03:07:02.597Z,6.63
2023-04-18T03:09:31.680Z,6.64
2023-04-18T03:11:59.399Z,6.45
2023-04-18T03:14:27.602Z,6.61
2023-04-18T03:16:55.777Z,6.60
2023-04-18T03:19:23.494Z,6.56
2023-04-18T03:21:51.309Z,6.51
2023-04-18T03:24:19.113Z,6.51
2023-04-18T03:26:48.230Z,6.48
2023-04-18T03:29:16.249Z,6.37
2023-04-18T03:31:44.176Z,6.34
2023-04-18T03:34:12.627Z,6.39
2023-04-18T03:36:40.524Z,6.44
2023-04-18T03:39:08.362Z,6.44
2023-04-18T03:41:36.039Z,6.53
2023-04-18T03:44:05.366Z,6.31
2023-04-18T03:46:33.166Z,6.50
2023-04-18T03:49:01.017Z,6.40
2023-04-18T03:51:31.300Z,6.39
2023-04-18T03:53:59.670Z,6.34
2023-04-18T03:56:28.020Z,6.34
2023-04-18T03:58:55.792Z,6.32
2023-04-18T04:01:24.896Z,6.28
2023-04-18T04:03:52.811Z,6.19
2023-04-18T04:06:20.802Z,6.16
2023-04-18T04:08:48.540Z,6.14
2023-04-18T04:11:17.857Z,6.22
2023-04-18T04:13:45.717Z,6.23
2023-04-18T04:16:13.648Z,6.29
2023-04-18T04:18:42.894Z,6.25
2023-04-18T04:21:10.781Z,6.23
2023-04-18T04:23:38.495Z,6.23
2023-04-18T04:26:06.649Z,6.24
2023-04-18T04:28:36.306Z,6.29
2023-04-18T04:31:06.843Z,6.35
2023-04-18T04:33:35.930Z,6.44
2023-04-18T04:36:05.704Z,6.48
2023-04-18T04:38:33.872Z,6.41
2023-04-18T04:41:01.728Z,6.23
2023-04-18T04:43:29.691Z,6.54
2023-04-18T04:45:57.798Z,6.56
2023-04-18T04:48:25.747Z,6.56
2023-04-18T04:50:54.604Z,6.45
2023-04-18T04:53:24.504Z,6.56
2023-04-18T04:55:53.100Z,6.58
2023-04-18T04:58:20.975Z,6.63
2023-04-18T05:00:50.753Z,6.64
2023-04-18T05:03:18.657Z,6.41
2023-04-18T05:05:46.778Z,6.62
2023-04-18T05:08:14.671Z,6.70
2023-04-18T05:10:44.425Z,6.69
2023-04-18T05:13:12.144Z,6.77
2023-04-18T05:15:40.468Z,6.75
2023-04-18T05:18:08.562Z,6.74
2023-04-18T05:20:36.551Z,6.76
2023-04-18T05:23:04.292Z,6.82
2023-04-18T05:25:33.605Z,6.86
2023-04-18T05:28:04.585Z,6.84
2023-04-18T05:30:32.369Z,6.83
2023-04-18T05:33:00.185Z,6.85
2023-04-18T05:35:28.309Z,6.80
2023-04-18T05:37:56.046Z,6.76
2023-04-18T05:40:23.877Z,6.70
2023-04-18T05:42:51.645Z,6.76
2023-04-18T05:45:20.864Z,6.84
2023-04-18T05:47:48.580Z,6.88
2023-04-18T05:50:16.693Z,6.82
2023-04-18T05:52:44.382Z,6.91
2023-04-18T05:55:12.291Z,6.93
2023-04-18T05:57:40.533Z,6.97
2023-04-18T06:00:11.546Z,7.00
2023-04-18T06:02:40.888Z,7.10
2023-04-18T06:05:10.025Z,6.99
2023-04-18T06:07:38.052Z,7.00
2023-04-18T06:10:09.261Z,7.11
2023-04-18T06:12:36.973Z,7.18
2023-04-18T06:15:05.691Z,7.04
2023-04-18T06:17:34.398Z,7.31
2023-04-18T06:20:05.576Z,7.32
2023-04-18T06:22:33.925Z,7.38
2023-04-18T06:25:01.661Z,7.53
2023-04-18T06:27:31.390Z,7.42
2023-04-18T06:29:59.974Z,7.42
2023-04-18T06:32:28.107Z,7.35
2023-04-18T06:34:55.894Z,7.48
2023-04-18T06:37:25.651Z,7.46
2023-04-18T06:39:53.485Z,7.53
2023-04-18T06:42:22.572Z,7.62
2023-04-18T06:44:50.928Z,7.60
2023-04-18T06:47:18.899Z,7.64
2023-04-18T06:49:46.678Z,7.79
2023-04-18T06:52:14.499Z,7.79
2023-04-18T06:54:43.610Z,7.85
2023-04-18T06:57:11.642Z,7.89
2023-04-18T06:59:41.260Z,8.17
2023-04-18T07:02:09.139Z,8.24
2023-04-18T07:04:36.954Z,8.17
2023-04-18T07:07:05.419Z,8.37
2023-04-18T07:09:33.184Z,8.57
2023-04-18T07:12:02.329Z,8.58
2023-04-18T07:14:31.698Z,8.74
2023-04-18T07:17:00.946Z,8.86
2023-04-18T07:19:29.174Z,9.23
2023-04-18T07:21:56.899Z,9.30
2023-04-18T07:24:24.694Z,9.31
2023-04-18T07:26:54.804Z,9.11
2023-04-18T07:29:24.257Z,9.35
2023-04-18T07:31:52.273Z,9.53
2023-04-18T07:34:20.040Z,9.63
2023-04-18T07:36:47.828Z,9.74
2023-04-18T07:39:15.664Z,9.65
2023-04-18T07:41:43.383Z,9.68
2023-04-18T07:44:11.438Z,9.78
2023-04-18T07:46:40.965Z,9.96
2023-04-18T07:49:08.765Z,9.89
2023-04-18T07:51:36.596Z,10.05
2023-04-18T07:54:04.327Z,10.00
2023-04-18T07:56:32.304Z,9.97
2023-04-18T07:59:00.020Z,10.24
2023-04-18T08:01:28.150Z,10.51
2023-04-18T08:04:01.472Z,10.23
2023-04-18T08:06:30.322Z,10.57
2023-04-18T08:08:59.005Z,10.69
2023-04-18T08:11:27.180Z,11.09
2023-04-18T08:13:54.917Z,11.09
2023-04-18T08:16:22.756Z,10.84
2023-04-18T08:18:50.592Z,10.70
2023-04-18T08:21:20.039Z,10.54
2023-04-18T08:23:48.036Z,10.66
2023-04-18T08:26:15.889Z,11.13
2023-04-18T08:28:46.358Z,11.59
2023-04-18T08:31:15.169Z,11.88
2023-04-18T08:33:43.235Z,12.51
2023-04-18T08:36:12.065Z,12.75
2023-04-18T08:38:41.283Z,13.19
2023-04-18T08:41:09.899Z,13.40
2023-04-18T08:43:38.879Z,12.94
2023-04-18T08:46:07.947Z,12.46
2023-04-18T08:48:37.115Z,12.87
2023-04-18T08:51:06.382Z,12.84
2023-04-18T08:53:35.309Z,12.19
2023-04-18T08:56:05.444Z,12.08
2023-04-18T08:58:34.839Z,12.06
2023-04-18T09:01:03.308Z,11.46
2023-04-18T09:03:40.072Z,11.82
2023-04-18T09:06:14.168Z,11.87
2023-04-18T09:08:44.526Z,12.34
2023-04-18T09:11:26.012Z,13.62
2023-04-18T09:13:56.236Z,14.20
2023-04-18T09:16:24.876Z,14.37
2023-04-18T09:19:13.883Z,13.76
2023-04-18T09:21:44.534Z,13.17
2023-04-18T09:24:23.806Z,13.09
2023-04-18T09:26:55.862Z,13.02
2023-04-18T09:29:24.390Z,12.88
2023-04-18T09:32:01.136Z,12.96
2023-04-18T09:34:30.131Z,13.72
2023-04-18T09:37:08.019Z,14.02
2023-04-18T09:39:36.430Z,14.47
2023-04-18T09:42:05.729Z,15.25
2023-04-18T09:44:33.777Z,15.13
2023-04-18T09:47:01.922Z,15.73
2023-04-18T09:49:30.062Z,16.20
2023-04-18T09:51:57.846Z,15.32
2023-04-18T09:54:26.830Z,14.16
2023-04-18T09:56:56.290Z,14.48
2023-04-18T09:59:38.645Z,14.43
2023-04-18T10:02:08.816Z,14.00
2023-04-18T10:04:37.100Z,13.61
2023-04-18T10:07:05.320Z,13.91
2023-04-18T10:09:36.725Z,14.19
2023-04-18T10:12:05.000Z,14.27
2023-04-18T10:14:35.208Z,14.57
2023-04-18T10:17:03.162Z,14.47
2023-04-18T10:19:31.820Z,13.30
2023-04-18T10:22:00.906Z,13.80
2023-04-18T10:24:48.083Z,13.92
2023-04-18T10:27:16.566Z,14.05
2023-04-18T10:29:50.335Z,14.17
2023-04-18T10:32:19.018Z,14.20
2023-04-18T10:34:47.455Z,14.08
2023-04-18T10:37:16.185Z,14.07
2023-04-18T10:39:57.311Z,13.81
2023-04-18T10:42:59.348Z,13.11
2023-04-18T10:45:31.362Z,12.73
2023-04-18T10:48:25.087Z,12.95
2023-04-18T10:51:18.633Z,13.30
2023-04-18T10:53:51.608Z,13.79
2023-04-18T10:56:19.531Z,13.77
2023-04-18T10:58:52.053Z,13.66
2023-04-18T11:01:31.724Z,13.98
2023-04-18T11:04:01.495Z,13.91
2023-04-18T11:06:31.177Z,13.82
2023-04-18T11:09:11.668Z,14.83
2023-04-18T11:11:39.485Z,14.82
2023-04-18T11:14:07.229Z,15.05
2023-04-18T11:16:37.102Z,16.02
2023-04-18T11:19:20.209Z,15.89
2023-04-18T11:21:48.126Z,16.79
2023-04-18T11:24:23.974Z,17.91
2023-04-18T11:26:53.634Z,18.47
2023-04-18T11:29:21.276Z,17.84
2023-04-18T11:31:55.266Z,16.93
2023-04-18T11:34:30.147Z,16.88
2023-04-18T11:36:58.061Z,16.08
2023-04-18T11:39:25.947Z,15.38
2023-04-18T11:41:56.094Z,15.27
2023-04-18T11:44:25.886Z,15.03
2023-04-18T11:46:55.520Z,14.95
2023-04-18T11:49:27.850Z,14.45
2023-04-18T11:51:55.868Z,14.30
2023-04-18T11:54:40.499Z,14.43
2023-04-18T11:57:19.236Z,14.35
2023-04-18T11:59:49.998Z,14.16
2023-04-18T12:02:19.960Z,13.95
2023-04-18T12:04:53.291Z,13.95
2023-04-18T12:07:36.334Z,14.05
2023-04-18T12:10:05.689Z,14.20
2023-04-18T12:12:33.547Z,14.33
2023-04-18T12:15:03.001Z,14.17
2023-04-18T12:17:32.487Z,14.37
2023-04-18T12:20:05.499Z,14.63
2023-04-18T12:22:41.961Z,14.78
2023-04-18T12:25:27.171Z,15.31
2023-04-18T12:27:58.346Z,15.54
2023-04-18T12:30:28.483Z,15.25
2023-04-18T12:33:04.902Z,15.08
2023-04-18T12:35:33.379Z,14.52
2023-04-18T12:38:02.817Z,14.59
2023-04-18T12:40:31.400Z,15.08
2023-04-18T12:42:59.706Z,14.97
2023-04-18T12:45:28.925Z,15.53
2023-04-18T12:47:58.135Z,16.42
2023-04-18T12:50:27.861Z,16.52
2023-04-18T12:52:58.325Z,16.07
2023-04-18T12:55:27.597Z,15.54
2023-04-18T12:57:58.384Z,15.41
2023-04-18T13:00:29.864Z,15.20
2023-04-18T13:03:01.121Z,15.35
2023-04-18T13:05:33.539Z,15.73
2023-04-18T13:10:35.199Z,15.77
2023-04-18T13:13:03.943Z,15.39
2023-04-18T13:15:31.654Z,15.19
2023-04-18T13:18:04.666Z,15.35
2023-04-18T13:20:33.237Z,15.25
2023-04-18T13:23:01.082Z,15.32
2023-04-18T13:25:29.047Z,15.02
2023-04-18T13:27:58.300Z,14.80
2023-04-18T13:30:26.475Z,14.80
2023-04-18T13:32:55.024Z,15.33
2023-04-18T13:35:24.009Z,15.07
2023-04-18T13:37:51.843Z,15.00
2023-04-18T13:40:19.762Z,14.97
2023-04-18T13:42:47.531Z,15.17
2023-04-18T13:45:15.922Z,15.43
2023-04-18T13:47:43.709Z,15.30
2023-04-18T13:50:11.976Z,15.75
2023-04-18T13:52:41.106Z,17.02
2023-04-18T13:55:10.536Z,18.67
2023-04-18T13:57:38.262Z,19.85
2023-04-18T14:00:09.212Z,18.69
2023-04-18T14:02:37.127Z,18.01
2023-04-18T14:05:05.740Z,17.94
2023-04-18T14:07:33.629Z,18.05
2023-04-18T14:10:02.744Z,18.62
2023-04-18T14:12:31.336Z,18.36
2023-04-18T14:14:59.128Z,17.78
2023-04-18T14:17:27.279Z,17.23
2023-04-18T14:19:55.083Z,18.54
2023-04-18T14:22:22.853Z,20.32
2023-04-18T14:24:52.345Z,20.46
2023-04-18T14:27:21.495Z,19.87
2023-04-18T14:29:49.473Z,19.15
2023-04-18T14:32:17.247Z,18.53
2023-04-18T14:34:45.177Z,18.15
2023-04-18T14:37:13.163Z,17.79
2023-04-18T14:39:41.892Z,17.71
2023-04-18T14:42:09.661Z,17.74
2023-04-18T14:44:38.865Z,17.48
2023-04-18T14:47:06.698Z,16.65
2023-04-18T14:49:34.614Z,16.29
2023-04-18T14:52:02.338Z,15.91
2023-04-18T14:54:32.078Z,16.08
2023-04-18T14:57:01.519Z,15.99
2023-04-18T14:59:29.216Z,16.46
2023-04-18T15:02:09.357Z,17.63
2023-04-18T15:07:59.522Z,17.24
2023-04-18T15:10:56.445Z,18.90
2023-04-18T15:13:25.285Z,19.64
2023-04-18T15:15:54.345Z,18.71
2023-04-18T15:18:24.149Z,17.71
2023-04-18T15:20:53.715Z,17.22
2023-04-18T15:23:21.465Z,16.86
2023-04-18T15:25:49.423Z,16.42
2023-04-18T15:28:18.279Z,15.84
2023-04-18T15:30:47.050Z,16.00
2023-04-18T15:33:15.960Z,16.16
2023-04-18T15:35:45.091Z,16.96
2023-04-18T15:38:12.936Z,17.75
2023-04-18T15:40:40.896Z,17.42
2023-04-18T15:43:08.686Z,17.85
2023-04-18T15:45:36.961Z,18.46
2023-04-18T15:48:05.001Z,17.23
2023-04-18T15:50:33.818Z,17.93
2023-04-18T15:53:03.500Z,17.99
2023-04-18T15:55:31.329Z,18.04
2023-04-18T15:57:59.074Z,18.59
2023-04-18T16:00:27.495Z,18.49
2023-04-18T16:02:55.198Z,18.44
2023-04-18T16:05:23.186Z,18.74
2023-04-18T16:07:52.373Z,18.18
2023-04-18T16:10:21.855Z,18.36
2023-04-18T16:12:49.621Z,18.33
2023-04-18T16:15:17.453Z,18.22
2023-04-18T16:17:45.482Z,18.13
2023-04-18T16:20:13.784Z,17.68
2023-04-18T16:22:41.562Z,17.50
2023-04-18T16:25:10.636Z,17.28
2023-04-18T16:27:39.809Z,16.77
2023-04-18T16:30:10.003Z,16.90
2023-04-18T16:32:38.369Z,16.72
2023-04-18T16:35:07.880Z,16.57
2023-04-18T16:37:35.658Z,15.96
2023-04-18T16:40:05.763Z,16.05
2023-04-18T16:42:33.574Z,16.03
2023-04-18T16:45:04.204Z,15.94
2023-04-18T16:47:32.414Z,15.92
2023-04-18T16:50:00.842Z,15.67
2023-04-18T16:52:29.183Z,15.68
2023-04-18T16:54:56.950Z,15.45
2023-04-18T16:57:24.776Z,15.17
2023-04-18T16:59:52.569Z,15.20
2023-04-18T17:02:21.796Z,15.27
2023-04-18T17:04:49.912Z,15.39
2023-04-18T17:07:17.780Z,15.43
2023-04-18T17:09:45.596Z,15.65
2023-04-18T17:12:13.422Z,15.55
2023-04-18T17:14:41.198Z,15.44
2023-04-18T17:17:09.016Z,15.40
2023-04-18T17:19:38.258Z,15.45
2023-04-18T17:22:06.174Z,15.06
2023-04-18T17:24:34.036Z,15.13
2023-04-18T17:27:01.765Z,14.95
2023-04-18T17:29:29.505Z,14.99
2023-04-18T17:31:57.395Z,14.70
2023-04-18T17:34:25.589Z,14.70
2023-04-18T17:36:54.850Z,14.65
2023-04-18T17:39:22.765Z,14.41
2023-04-18T17:41:50.950Z,14.12
2023-04-18T17:44:18.893Z,14.15
2023-04-18T17:46:48.226Z,14.15
2023-04-18T17:49:16.861Z,13.99
2023-04-18T17:51:44.599Z,14.01
2023-04-18T17:54:14.114Z,14.18
2023-04-18T17:56:42.007Z,14.20
2023-04-18T17:59:09.894Z,14.15
2023-04-18T18:01:38.701Z,14.07
2023-04-18T18:04:06.923Z,13.69
2023-04-18T18:06:34.887Z,13.74
2023-04-18T18:09:02.920Z,13.12
2023-04-18T18:11:32.096Z,13.67
2023-04-18T18:14:00.492Z,13.65
2023-04-18T18:16:28.639Z,13.42
2023-04-18T18:18:56.727Z,13.46
2023-04-18T18:21:24.456Z,13.49
2023-04-18T18:23:52.458Z,13.46
2023-04-18T18:26:20.488Z,13.32
2023-04-18T18:28:50.323Z,13.37
2023-04-18T18:31:22.674Z,13.31
2023-04-18T18:33:50.573Z,13.24
2023-04-18T18:36:18.927Z,13.06
2023-04-18T18:38:47.475Z,13.02
2023-04-18T18:41:15.862Z,12.90
2023-04-18T18:43:44.299Z,12.89
2023-04-18T18:46:16.035Z,12.83
2023-04-18T18:48:44.446Z,12.75
2023-04-18T18:51:21.581Z,12.64
2023-04-18T18:53:49.858Z,12.56
2023-04-18T18:56:18.440Z,12.55
2023-04-18T18:58:46.559Z,12.53
2023-04-18T19:01:16.089Z,12.41
2023-04-18T19:03:44.014Z,12.16
2023-04-18T19:06:12.212Z,12.34
2023-04-18T19:08:40.283Z,12.31
2023-04-18T19:11:09.019Z,12.12
2023-04-18T19:13:36.568Z,12.09
2023-04-18T19:16:06.651Z,12.04
2023-04-18T19:18:36.953Z,11.99
2023-04-18T19:21:05.803Z,11.91
2023-04-18T19:23:33.751Z,11.84
2023-04-18T19:26:01.568Z,11.86
2023-04-18T19:28:29.541Z,11.73
2023-04-18T19:30:57.560Z,11.64
2023-04-18T19:33:27.487Z,11.66
2023-04-18T19:35:56.754Z,11.62
2023-04-18T19:38:24.998Z,11.56
2023-04-18T19:40:52.960Z,11.45
2023-04-18T19:43:22.951Z,11.47
2023-04-18T19:45:55.013Z,11.46
2023-04-18T19:48:23.592Z,11.13
2023-04-18T19:50:52.633Z,11.25
2023-04-18T19:53:23.578Z,11.29
2023-04-18T19:55:53.740Z,11.17
2023-04-18T19:58:46.916Z,10.85
2023-04-18T20:01:16.481Z,10.90
2023-04-18T20:03:44.717Z,10.81
2023-04-18T20:06:12.901Z,10.94
2023-04-18T20:08:42.627Z,10.95
2023-04-18T20:11:14.633Z,10.94
2023-04-18T20:13:42.595Z,10.85
2023-04-18T20:16:11.208Z,10.87
2023-04-18T20:18:41.568Z,10.56
2023-04-18T20:21:11.411Z,10.76
2023-04-18T20:23:40.471Z,10.67
2023-04-18T20:26:10.374Z,10.59
2023-04-18T20:28:38.711Z,10.70
2023-04-18T20:31:18.367Z,10.64
2023-04-18T20:33:46.494Z,10.56
2023-04-18T20:36:14.517Z,10.48
2023-04-18T20:38:44.362Z,10.47
2023-04-18T20:41:18.609Z,10.20
2023-04-18T20:43:46.895Z,10.37
2023-04-18T20:46:16.238Z,10.36
2023-04-18T20:48:44.459Z,10.35
2023-04-18T20:51:12.380Z,10.24
2023-04-18T20:53:40.071Z,10.20
2023-04-18T20:56:07.945Z,10.12
2023-04-18T20:58:37.127Z,10.21
2023-04-18T21:01:05.208Z,10.15
2023-04-18T21:03:33.246Z,10.05
2023-04-18T21:06:01.261Z,10.06
2023-04-18T21:08:29.131Z,9.96
2023-04-18T21:10:56.858Z,10.05
2023-04-18T21:13:24.722Z,9.94
2023-04-18T21:15:53.823Z,9.93
2023-04-18T21:18:21.524Z,9.91
2023-04-18T21:20:49.616Z,9.85
2023-04-18T21:23:17.502Z,9.82
2023-04-18T21:25:45.581Z,9.81
2023-04-18T21:28:13.574Z,9.74
2023-04-18T21:30:41.804Z,9.75
2023-04-18T21:33:11.571Z,9.73
2023-04-18T21:35:42.617Z,9.66
2023-04-18T21:38:10.737Z,9.65
2023-04-18T21:40:38.606Z,9.60
2023-04-18T21:43:06.891Z,9.53
2023-04-18T21:45:35.242Z,9.55
2023-04-18T21:48:03.530Z,9.55
2023-04-18T21:50:33.334Z,9.51
2023-04-18T21:53:01.083Z,9.51
2023-04-18T21:55:30.752Z,9.47
2023-04-18T21:57:59.057Z,9.33
2023-04-18T22:00:27.881Z,9.36
2023-04-18T22:02:55.751Z,9.14
2023-04-18T22:05:24.081Z,9.35
2023-04-18T22:07:58.124Z,9.37
2023-04-18T22:10:27.489Z,9.29
2023-04-18T22:12:56.182Z,9.26
2023-04-18T22:15:24.328Z,9.26
2023-04-18T22:17:52.329Z,9.16
2023-04-18T22:20:20.341Z,9.16
2023-04-18T22:22:48.395Z,9.10
2023-04-18T22:25:17.939Z,9.08
2023-04-18T22:27:46.532Z,9.13
2023-04-18T22:30:15.511Z,9.14
2023-04-18T22:32:45.620Z,9.08
2023-04-18T22:35:16.794Z,9.08
2023-04-18T22:37:45.246Z,9.02
2023-04-18T22:40:16.538Z,8.95
2023-04-18T22:42:46.346Z,8.92
2023-04-18T22:45:14.758Z,8.92
2023-04-18T22:47:43.075Z,8.91
2023-04-18T22:50:11.551Z,8.81
2023-04-18T22:52:39.785Z,8.85
2023-04-18T22:55:08.494Z,8.83
2023-04-18T22:57:36.484Z,8.78
2023-04-18T23:00:07.460Z,8.61
2023-04-18T23:02:35.620Z,8.62
2023-04-18T23:05:04.108Z,8.80
2023-04-18T23:07:32.031Z,8.79
2023-04-18T23:10:00.258Z,8.77
2023-04-18T23:12:30.920Z,8.73
2023-04-18T23:14:59.161Z,8.68
2023-04-18T23:17:28.755Z,8.64
2023-04-18T23:19:56.455Z,8.44
2023-04-18T23:22:24.741Z,8.40
2023-04-18T23:24:52.558Z,8.56
2023-04-18T23:27:20.342Z,8.56
2023-04-18T23:29:48.522Z,8.58
2023-04-18T23:32:16.323Z,8.55
2023-04-18T23:34:46.113Z,8.54
2023-04-18T23:37:13.866Z,8.48
2023-04-18T23:39:41.634Z,8.47
2023-04-18T23:42:09.662Z,8.23
2023-04-18T23:44:37.500Z,8.42
2023-04-18T23:47:05.325Z,8.43
2023-04-18T23:49:33.050Z,8.41
2023-04-18T23:52:02.885Z,8.26
2023-04-18T23:54:31.191Z,8.34
2023-04-18T23:56:58.936Z,8.29
2023-04-18T23:59:27.024Z,8.07
